createdAt,value
2019-01-24T00:00:00.608Z,36.50
2019-01-24T00:02:29.263Z,36.65
2019-01-24T00:04:57.851Z,35.87
2019-01-24T00:07:26.414Z,38.53
2019-01-24T00:09:54.994Z,39.70
2019-01-24T00:12:23.570Z,37.10
2019-01-24T00:14:52.154Z,37.83
2019-01-24T00:17:21.342Z,33.95
2019-01-24T00:19:49.926Z,36.87
2019-01-24T00:22:18.498Z,37.33
2019-01-24T00:24:47.102Z,34.55
2019-01-24T00:27:16.260Z,36.07
2019-01-24T00:29:44.982Z,36.37
2019-01-24T00:32:13.589Z,33.87
2019-01-24T00:34:42.266Z,33.17
2019-01-24T00:37:10.842Z,36.07
2019-01-24T00:39:41.044Z,34.65
2019-01-24T00:42:09.718Z,31.30
2019-01-24T00:44:38.318Z,33.70
2019-01-24T00:47:06.982Z,32.57
2019-01-24T00:49:35.572Z,33.07
2019-01-24T00:52:04.246Z,33.00
2019-01-24T00:54:32.857Z,33.57
2019-01-24T00:57:01.434Z,33.75
2019-01-24T00:59:32.327Z,30.33
2019-01-24T01:02:01.521Z,32.63
2019-01-24T01:04:30.495Z,31.10
2019-01-24T01:06:59.069Z,36.37
2019-01-24T01:09:27.632Z,35.60
2019-01-24T01:11:56.249Z,36.00
2019-01-24T01:14:24.848Z,33.07
2019-01-24T01:16:53.442Z,33.13
2019-01-24T01:19:22.026Z,36.25
2019-01-24T01:21:50.584Z,32.90
2019-01-24T01:24:19.166Z,37.35
2019-01-24T01:26:47.745Z,36.77
2019-01-24T01:29:16.345Z,34.23
2019-01-24T01:31:44.915Z,32.83
2019-01-24T01:34:13.581Z,35.23
2019-01-24T01:36:42.163Z,33.67
2019-01-24T01:39:10.758Z,30.90
2019-01-24T01:41:39.370Z,32.35
2019-01-24T01:44:07.930Z,33.10
2019-01-24T01:46:37.025Z,35.77
2019-01-24T01:49:05.606Z,34.67
2019-01-24T01:51:34.217Z,33.53
2019-01-24T01:54:02.786Z,35.87
2019-01-24T01:56:31.356Z,34.97
2019-01-24T01:58:59.946Z,32.75
2019-01-24T02:01:28.627Z,33.60
2019-01-24T02:03:57.190Z,35.92
2019-01-24T02:06:25.784Z,34.00
2019-01-24T02:08:54.382Z,33.07
2019-01-24T02:11:22.970Z,35.37
2019-01-24T02:13:51.550Z,32.03
2019-01-24T02:16:20.121Z,36.63
2019-01-24T02:18:48.699Z,39.23
2019-01-24T02:21:17.402Z,36.73
2019-01-24T02:23:45.977Z,38.80
2019-01-24T02:26:14.570Z,36.05
2019-01-24T02:28:43.147Z,35.90
2019-01-24T02:31:12.034Z,39.27
2019-01-24T02:33:40.612Z,41.57
2019-01-24T02:36:09.205Z,42.17
2019-01-24T02:38:37.797Z,43.20
2019-01-24T02:41:06.390Z,41.43
2019-01-24T02:43:34.957Z,39.20
2019-01-24T02:46:03.612Z,38.30
2019-01-24T02:48:32.216Z,40.73
2019-01-24T02:51:00.786Z,48.17
2019-01-24T02:53:29.382Z,38.87
2019-01-24T02:55:57.959Z,44.07
2019-01-24T02:58:26.556Z,43.53
2019-01-24T03:00:55.133Z,46.43
2019-01-24T03:03:24.687Z,47.23
2019-01-24T03:05:53.248Z,44.10
2019-01-24T03:08:21.828Z,46.73
2019-01-24T03:10:50.430Z,44.88
2019-01-24T03:13:19.032Z,50.00
2019-01-24T03:15:47.594Z,53.03
2019-01-24T03:18:16.177Z,47.93
2019-01-24T03:20:45.238Z,46.90
2019-01-24T03:23:13.838Z,45.77
2019-01-24T03:25:42.408Z,43.80
2019-01-24T03:28:11.023Z,47.88
2019-01-24T03:30:39.585Z,46.07
2019-01-24T03:33:08.183Z,45.20
2019-01-24T03:35:36.769Z,45.70
2019-01-24T03:38:05.346Z,46.03
2019-01-24T03:40:33.931Z,52.43
2019-01-24T03:43:02.534Z,46.73
2019-01-24T03:45:31.117Z,49.15
2019-01-24T03:47:59.702Z,47.77
2019-01-24T03:50:28.289Z,47.83
2019-01-24T03:52:56.867Z,47.83
2019-01-24T03:55:25.469Z,43.92
2019-01-24T03:57:54.047Z,48.17
2019-01-24T04:00:24.199Z,45.58
2019-01-24T04:02:52.777Z,45.47
2019-01-24T04:05:23.138Z,46.23
2019-01-24T04:07:51.713Z,44.27
2019-01-24T04:10:21.181Z,47.37
2019-01-24T04:12:49.884Z,42.27
2019-01-24T04:15:22.893Z,46.27
2019-01-24T04:17:51.474Z,45.93
2019-01-24T04:20:20.106Z,41.70
2019-01-24T04:22:48.673Z,45.58
2019-01-24T04:25:17.243Z,42.37
2019-01-24T04:27:45.839Z,45.70
2019-01-24T04:30:16.518Z,44.30
2019-01-24T04:32:46.156Z,49.03
2019-01-24T04:35:19.769Z,46.10
2019-01-24T04:37:45.217Z,47.70
2019-01-24T04:40:15.259Z,45.47
2019-01-24T04:42:43.853Z,48.77
2019-01-24T04:45:13.755Z,46.02
2019-01-24T04:47:42.390Z,48.40
2019-01-24T04:50:12.802Z,45.27
2019-01-24T04:52:41.389Z,44.80
2019-01-24T04:55:11.546Z,46.83
2019-01-24T04:57:40.114Z,48.17
2019-01-24T05:00:18.930Z,43.85
2019-01-24T05:02:47.516Z,46.93
2019-01-24T05:05:16.099Z,46.45
2019-01-24T05:07:44.690Z,41.53
2019-01-24T05:10:13.291Z,40.60
2019-01-24T05:12:41.934Z,39.43
2019-01-24T05:15:10.525Z,44.03
2019-01-24T05:17:39.093Z,44.33
2019-01-24T05:20:08.694Z,46.07
2019-01-24T05:22:37.265Z,41.98
2019-01-24T05:25:07.700Z,43.13
2019-01-24T05:27:36.268Z,40.23
2019-01-24T05:30:07.622Z,45.17
2019-01-24T05:32:36.278Z,40.70
2019-01-24T05:35:05.215Z,42.20
2019-01-24T05:37:33.859Z,40.03
2019-01-24T05:40:02.434Z,39.07
2019-01-24T05:42:32.313Z,43.37
2019-01-24T05:45:00.914Z,42.83
2019-01-24T05:47:29.485Z,48.30
2019-01-24T05:49:58.071Z,50.85
2019-01-24T05:52:26.648Z,43.63
2019-01-24T05:54:55.250Z,41.53
2019-01-24T05:57:23.845Z,44.20
2019-01-24T05:59:53.349Z,41.73
2019-01-24T06:02:21.925Z,39.97
2019-01-24T06:04:50.522Z,43.63
2019-01-24T06:07:19.101Z,44.43
2019-01-24T06:09:47.676Z,40.07
2019-01-24T06:12:16.254Z,41.77
2019-01-24T06:14:44.866Z,41.27
2019-01-24T06:17:13.452Z,39.77
2019-01-24T06:19:42.089Z,42.03
2019-01-24T06:22:10.691Z,43.53
2019-01-24T06:24:39.281Z,40.30
2019-01-24T06:27:07.866Z,42.23
2019-01-24T06:29:36.437Z,40.47
2019-01-24T06:32:05.039Z,41.93
2019-01-24T06:34:33.611Z,43.67
2019-01-24T06:37:02.212Z,46.47
2019-01-24T06:39:30.781Z,44.05
2019-01-24T06:41:59.374Z,40.33
2019-01-24T06:44:29.665Z,42.93
2019-01-24T06:46:58.259Z,45.73
2019-01-24T06:49:26.837Z,43.67
2019-01-24T06:51:55.422Z,41.67
2019-01-24T06:54:24.019Z,46.33
2019-01-24T06:56:52.612Z,42.45
2019-01-24T06:59:21.196Z,42.80
2019-01-24T07:01:49.773Z,43.65
2019-01-24T07:04:18.357Z,42.80
2019-01-24T07:06:46.936Z,48.13
2019-01-24T07:09:15.522Z,45.93
2019-01-24T07:11:44.104Z,46.13
2019-01-24T07:14:12.707Z,44.07
2019-01-24T07:16:41.286Z,43.57
2019-01-24T07:19:09.869Z,44.63
2019-01-24T07:21:38.470Z,46.37
2019-01-24T07:24:07.044Z,46.27
2019-01-24T07:26:35.626Z,44.57
2019-01-24T07:29:05.049Z,48.83
2019-01-24T07:31:33.634Z,45.57
2019-01-24T07:34:02.217Z,47.77
2019-01-24T07:36:30.799Z,59.93
2019-01-24T07:38:59.379Z,46.70
2019-01-24T07:41:27.953Z,46.13
2019-01-24T07:43:56.548Z,47.13
2019-01-24T07:46:25.117Z,46.25
2019-01-24T07:48:53.711Z,48.33
2019-01-24T07:51:23.097Z,45.87
2019-01-24T07:53:51.733Z,47.23
2019-01-24T07:56:20.317Z,43.27
2019-01-24T07:58:48.921Z,46.20
2019-01-24T08:01:17.502Z,43.23
2019-01-24T08:03:46.072Z,51.33
2019-01-24T08:06:14.650Z,51.80
2019-01-24T08:08:44.193Z,47.20
2019-01-24T08:11:12.790Z,47.53
2019-01-24T08:13:42.100Z,46.57
2019-01-24T08:16:10.687Z,53.03
2019-01-24T08:18:39.258Z,55.03
2019-01-24T08:21:07.837Z,58.03
2019-01-24T08:23:36.414Z,55.50
2019-01-24T08:26:05.005Z,61.90
2019-01-24T08:28:33.594Z,57.40
2019-01-24T08:31:02.190Z,54.07
2019-01-24T08:33:30.774Z,54.70
2019-01-24T08:35:59.372Z,57.17
2019-01-24T08:38:27.943Z,61.37
2019-01-24T08:40:56.530Z,60.07
2019-01-24T08:43:25.209Z,64.40
2019-01-24T08:45:53.801Z,63.17
2019-01-24T08:48:22.370Z,68.72
2019-01-24T08:50:50.966Z,68.07
2019-01-24T08:53:19.533Z,66.53
2019-01-24T08:55:48.144Z,73.93
2019-01-24T08:58:16.713Z,69.83
2019-01-24T09:00:45.325Z,72.30
2019-01-24T09:03:13.906Z,70.40
2019-01-24T09:05:42.507Z,74.97
2019-01-24T09:08:11.082Z,71.62
2019-01-24T09:10:39.992Z,70.17
2019-01-24T09:13:09.089Z,74.97
2019-01-24T09:15:37.984Z,71.47
2019-01-24T09:18:07.494Z,72.93
2019-01-24T09:20:36.350Z,81.80
2019-01-24T09:23:05.897Z,73.63
2019-01-24T09:25:35.134Z,79.75
2019-01-24T09:28:03.714Z,72.90
2019-01-24T09:30:32.314Z,72.43
2019-01-24T09:33:00.895Z,70.70
2019-01-24T09:35:29.478Z,74.30
2019-01-24T09:37:58.062Z,78.00
2019-01-24T09:40:26.657Z,82.23
2019-01-24T09:42:55.242Z,75.12
2019-01-24T09:45:25.377Z,78.63
2019-01-24T09:47:55.108Z,80.47
2019-01-24T09:50:24.235Z,74.00
2019-01-24T09:52:52.841Z,74.07
2019-01-24T09:55:21.430Z,69.47
2019-01-24T09:57:50.109Z,73.17
2019-01-24T10:00:32.971Z,73.65
2019-01-24T10:03:01.663Z,73.20
2019-01-24T10:05:30.256Z,71.47
2019-01-24T10:07:58.841Z,75.80
2019-01-24T10:10:27.782Z,75.40
2019-01-24T10:12:56.921Z,75.33
2019-01-24T10:15:25.509Z,68.90
2019-01-24T10:17:54.057Z,69.03
2019-01-24T10:20:23.790Z,250.93
2019-01-24T10:22:52.361Z,95.03
2019-01-24T10:25:37.650Z,72.30
2019-01-24T10:28:06.449Z,74.73
2019-01-24T10:30:35.383Z,70.87
2019-01-24T10:33:03.989Z,71.07
2019-01-24T10:35:33.165Z,72.05
2019-01-24T10:38:01.758Z,76.23
2019-01-24T10:40:31.502Z,72.07
2019-01-24T10:43:00.100Z,74.37
2019-01-24T10:45:28.662Z,69.93
2019-01-24T10:47:57.251Z,72.65
2019-01-24T10:50:26.273Z,67.40
2019-01-24T10:52:54.861Z,67.97
2019-01-24T10:55:25.193Z,67.43
2019-01-24T10:57:55.088Z,70.30
2019-01-24T11:00:32.558Z,68.13
2019-01-24T11:03:02.292Z,70.65
2019-01-24T11:05:30.944Z,76.83
2019-01-24T11:08:00.282Z,74.70
2019-01-24T11:10:28.863Z,76.50
2019-01-24T11:12:57.468Z,74.77
2019-01-24T11:15:26.053Z,67.10
2019-01-24T11:17:54.642Z,73.57
2019-01-24T11:20:23.238Z,69.72
2019-01-24T11:22:51.846Z,75.43
2019-01-24T11:25:21.484Z,70.40
2019-01-24T11:27:50.062Z,73.17
2019-01-24T11:30:22.230Z,74.37
2019-01-24T11:32:50.906Z,69.53
2019-01-24T11:35:20.332Z,68.77
2019-01-24T11:37:48.913Z,72.17
2019-01-24T11:40:17.841Z,73.10
2019-01-24T11:42:46.445Z,68.28
2019-01-24T11:45:15.894Z,61.27
2019-01-24T11:47:44.482Z,70.67
2019-01-24T11:50:15.330Z,64.07
2019-01-24T11:52:43.928Z,70.15
2019-01-24T11:55:13.506Z,66.37
2019-01-24T11:57:42.132Z,66.77
2019-01-24T12:00:22.734Z,63.53
2019-01-24T12:02:51.311Z,67.60
2019-01-24T12:05:19.884Z,68.10
2019-01-24T12:07:50.062Z,66.82
2019-01-24T12:10:20.480Z,64.27
2019-01-24T12:12:49.131Z,60.37
2019-01-24T12:15:19.083Z,66.53
2019-01-24T12:17:47.652Z,66.70
2019-01-24T12:20:20.762Z,64.45
2019-01-24T12:22:49.345Z,62.10
2019-01-24T12:25:18.009Z,62.93
2019-01-24T12:27:46.580Z,56.20
2019-01-24T12:30:24.306Z,58.50
2019-01-24T12:32:52.885Z,59.30
2019-01-24T12:35:21.485Z,58.80
2019-01-24T12:37:50.057Z,50.93
2019-01-24T12:40:18.654Z,50.65
2019-01-24T12:42:47.226Z,49.37
2019-01-24T12:45:18.482Z,50.97
2019-01-24T12:47:47.091Z,48.20
2019-01-24T12:50:16.438Z,47.37
2019-01-24T12:52:45.058Z,46.70
2019-01-24T12:55:13.752Z,50.90
2019-01-24T12:57:42.330Z,54.60
2019-01-24T13:00:16.798Z,55.73
2019-01-24T13:02:45.388Z,51.80
2019-01-24T13:05:13.996Z,52.40
2019-01-24T13:07:42.553Z,56.10
2019-01-24T13:10:13.427Z,46.18
2019-01-24T13:12:42.016Z,45.17
2019-01-24T13:15:10.779Z,44.87
2019-01-24T13:17:40.217Z,45.52
2019-01-24T13:20:10.842Z,45.20
2019-01-24T13:22:39.594Z,46.97
2019-01-24T13:25:11.490Z,43.10
2019-01-24T13:27:40.094Z,41.68
2019-01-24T13:30:12.334Z,38.42
2019-01-24T13:32:42.548Z,34.47
2019-01-24T13:35:11.310Z,31.10
2019-01-24T13:37:42.315Z,29.30
2019-01-24T13:40:12.996Z,32.00
2019-01-24T13:42:41.636Z,31.33
2019-01-24T13:45:12.804Z,27.93
2019-01-24T13:47:41.828Z,35.57
2019-01-24T13:50:12.791Z,29.50
2019-01-24T13:52:41.389Z,30.20
2019-01-24T13:55:10.098Z,31.40
2019-01-24T13:57:38.767Z,28.93
2019-01-24T14:00:29.716Z,30.63
2019-01-24T14:03:02.113Z,34.47
2019-01-24T14:05:30.776Z,30.83
2019-01-24T14:07:59.451Z,31.23
2019-01-24T14:10:28.074Z,28.50
2019-01-24T14:12:56.718Z,28.17
2019-01-24T14:15:25.436Z,31.63
2019-01-24T14:17:54.168Z,29.60
2019-01-24T14:20:23.374Z,31.33
2019-01-24T14:22:52.873Z,28.47
2019-01-24T14:25:22.750Z,33.90
2019-01-24T14:27:52.830Z,30.43
2019-01-24T14:30:22.984Z,29.87
2019-01-24T14:32:51.937Z,28.07
2019-01-24T14:35:21.113Z,29.53
2019-01-24T14:37:50.096Z,30.43
2019-01-24T14:40:18.944Z,31.90
2019-01-24T14:42:48.616Z,32.50
2019-01-24T14:45:19.825Z,37.47
2019-01-24T14:47:49.701Z,35.53
2019-01-24T14:50:22.911Z,36.30
2019-01-24T14:52:51.499Z,34.73
2019-01-24T14:55:20.078Z,36.38
2019-01-24T14:57:48.780Z,37.10
2019-01-24T15:00:29.259Z,37.83
2019-01-24T15:02:57.830Z,37.90
2019-01-24T15:05:26.418Z,38.70
2019-01-24T15:07:54.990Z,39.93
2019-01-24T15:10:23.666Z,39.27
2019-01-24T15:12:52.266Z,35.80
2019-01-24T15:15:20.980Z,38.07
2019-01-24T15:17:50.426Z,40.73
2019-01-24T15:20:19.142Z,42.33
2019-01-24T15:22:47.727Z,48.83
2019-01-24T15:25:16.316Z,54.03
2019-01-24T15:27:44.911Z,42.07
2019-01-24T15:30:16.479Z,38.73
2019-01-24T15:32:46.218Z,38.47
2019-01-24T15:35:15.831Z,39.30
2019-01-24T15:37:45.340Z,40.20
2019-01-24T15:40:16.736Z,38.43
2019-01-24T15:42:45.306Z,40.03
2019-01-24T15:45:14.104Z,38.20
2019-01-24T15:47:42.673Z,40.73
2019-01-24T15:50:12.310Z,42.60
2019-01-24T15:52:40.888Z,39.67
2019-01-24T15:55:09.578Z,37.33
2019-01-24T15:57:38.197Z,38.03
2019-01-24T16:00:11.138Z,37.47
2019-01-24T16:02:39.691Z,42.30
2019-01-24T16:05:09.502Z,38.30
2019-01-24T16:07:38.075Z,43.63
2019-01-24T16:10:08.507Z,42.00
2019-01-24T16:12:37.113Z,38.37
2019-01-24T16:15:07.766Z,40.77
2019-01-24T16:17:36.330Z,40.50
2019-01-24T16:20:06.707Z,39.38
2019-01-24T16:22:35.346Z,36.60
2019-01-24T16:25:04.359Z,39.90
2019-01-24T16:27:32.987Z,39.40
2019-01-24T16:30:01.567Z,42.10
2019-01-24T16:32:32.238Z,41.33
2019-01-24T16:35:00.806Z,39.70
2019-01-24T16:37:29.451Z,39.00
2019-01-24T16:39:58.031Z,39.87
2019-01-24T16:42:26.601Z,39.92
2019-01-24T16:44:55.177Z,41.90
2019-01-24T16:47:24.015Z,41.13
2019-01-24T16:49:52.609Z,46.80
2019-01-24T16:52:21.186Z,41.73
2019-01-24T16:54:49.769Z,39.83
2019-01-24T16:57:18.353Z,42.40
2019-01-24T16:59:46.941Z,45.30
2019-01-24T17:02:15.530Z,42.73
2019-01-24T17:04:44.118Z,43.73
2019-01-24T17:07:12.714Z,43.90
2019-01-24T17:09:42.089Z,45.03
2019-01-24T17:12:10.660Z,40.73
2019-01-24T17:14:42.345Z,45.50
2019-01-24T17:17:11.000Z,44.53
2019-01-24T17:19:39.593Z,42.80
2019-01-24T17:22:07.954Z,42.00
2019-01-24T17:24:36.564Z,48.50
2019-01-24T17:27:06.180Z,39.70
2019-01-24T17:29:34.768Z,43.00
2019-01-24T17:32:03.389Z,43.10
2019-01-24T17:34:31.978Z,42.40
2019-01-24T17:37:00.559Z,37.67
2019-01-24T17:39:29.131Z,44.23
2019-01-24T17:41:57.699Z,40.07
2019-01-24T17:44:26.281Z,41.48
2019-01-24T17:46:54.862Z,38.77
2019-01-24T17:49:23.458Z,40.27
2019-01-24T17:51:52.027Z,45.83
2019-01-24T17:54:21.115Z,41.80
2019-01-24T17:56:49.695Z,42.60
2019-01-24T17:59:18.307Z,44.20
2019-01-24T18:01:47.091Z,43.43
2019-01-24T18:04:21.649Z,45.60
2019-01-24T18:06:46.140Z,41.77
2019-01-24T18:09:14.772Z,41.07
2019-01-24T18:11:43.371Z,44.30
2019-01-24T18:14:11.950Z,40.90
2019-01-24T18:16:40.545Z,45.25
2019-01-24T18:19:09.274Z,40.73
2019-01-24T18:21:39.301Z,44.13
2019-01-24T18:24:07.960Z,40.23
2019-01-24T18:26:36.554Z,42.87
2019-01-24T18:29:05.194Z,42.43
2019-01-24T18:31:33.793Z,46.07
2019-01-24T18:34:02.377Z,48.15
2019-01-24T18:36:30.981Z,50.27
2019-01-24T18:38:59.549Z,48.48
2019-01-24T18:41:28.137Z,48.20
2019-01-24T18:43:57.193Z,44.48
2019-01-24T18:46:25.792Z,44.17
2019-01-24T18:48:54.378Z,47.57
2019-01-24T18:51:23.101Z,47.53
2019-01-24T18:53:51.686Z,48.40
2019-01-24T18:56:20.278Z,43.85
2019-01-24T18:58:48.938Z,43.53
2019-01-24T19:01:17.832Z,44.60
2019-01-24T19:03:46.406Z,44.43
2019-01-24T19:06:15.184Z,49.65
2019-01-24T19:08:45.933Z,44.93
2019-01-24T19:11:14.127Z,44.48
2019-01-24T19:13:42.714Z,49.40
2019-01-24T19:16:11.314Z,50.40
2019-01-24T19:18:39.884Z,47.93
2019-01-24T19:21:08.489Z,50.53
2019-01-24T19:23:37.083Z,51.77
2019-01-24T19:26:05.689Z,53.07
2019-01-24T19:28:34.294Z,56.93
2019-01-24T19:31:02.922Z,59.93
2019-01-24T19:33:31.590Z,54.47
2019-01-24T19:36:00.589Z,52.33
2019-01-24T19:38:29.340Z,52.37
2019-01-24T19:40:57.934Z,51.92
2019-01-24T19:43:26.526Z,52.27
2019-01-24T19:45:55.102Z,52.05
2019-01-24T19:48:23.701Z,42.83
2019-01-24T19:50:52.368Z,46.17
2019-01-24T19:53:21.061Z,42.50
2019-01-24T19:55:49.658Z,44.87
2019-01-24T19:58:18.290Z,53.17
2019-01-24T20:00:46.905Z,49.73
2019-01-24T20:03:15.537Z,48.78
2019-01-24T20:05:44.101Z,49.13
2019-01-24T20:08:12.717Z,49.73
2019-01-24T20:10:41.316Z,51.93
2019-01-24T20:13:09.925Z,50.30
2019-01-24T20:15:38.503Z,48.53
2019-01-24T20:18:07.243Z,50.37
2019-01-24T20:20:37.597Z,53.27
2019-01-24T20:23:06.596Z,53.10
2019-01-24T20:25:35.187Z,51.03
2019-01-24T20:28:03.795Z,55.17
2019-01-24T20:30:32.378Z,51.42
2019-01-24T20:33:01.830Z,53.93
2019-01-24T20:35:33.270Z,51.97
2019-01-24T20:38:01.888Z,52.87
2019-01-24T20:40:30.487Z,52.97
2019-01-24T20:42:59.110Z,47.90
2019-01-24T20:45:29.502Z,48.52
2019-01-24T20:47:59.194Z,49.00
2019-01-24T20:50:28.716Z,49.63
2019-01-24T20:52:57.334Z,52.43
2019-01-24T20:55:25.910Z,49.63
2019-01-24T20:57:54.474Z,49.13
2019-01-24T21:00:23.110Z,52.08
2019-01-24T21:02:51.776Z,46.73
2019-01-24T21:05:21.301Z,48.73
2019-01-24T21:07:49.944Z,49.08
2019-01-24T21:10:20.727Z,54.43
2019-01-24T21:12:49.288Z,54.93
2019-01-24T21:15:18.195Z,50.87
2019-01-24T21:17:46.752Z,52.23
2019-01-24T21:20:17.527Z,50.97
2019-01-24T21:22:46.113Z,51.40
2019-01-24T21:25:15.918Z,53.87
2019-01-24T21:27:44.549Z,52.43
2019-01-24T21:30:21.314Z,49.35
2019-01-24T21:32:49.902Z,50.13
2019-01-24T21:35:18.523Z,45.93
2019-01-24T21:37:47.101Z,51.93
2019-01-24T21:40:16.961Z,50.23
2019-01-24T21:42:45.549Z,48.37
2019-01-24T21:45:17.086Z,47.48
2019-01-24T21:47:45.665Z,44.23
2019-01-24T21:50:16.616Z,50.83
2019-01-24T21:52:45.321Z,48.97
2019-01-24T21:55:14.898Z,47.87
2019-01-24T21:57:43.472Z,47.13
2019-01-24T22:00:13.981Z,48.23
2019-01-24T22:02:42.567Z,48.30
2019-01-24T22:05:11.369Z,46.13
2019-01-24T22:07:39.958Z,48.40
2019-01-24T22:10:10.604Z,46.90
2019-01-24T22:12:39.205Z,50.67
2019-01-24T22:15:10.542Z,57.43
2019-01-24T22:17:39.150Z,47.93
2019-01-24T22:20:08.288Z,45.00
2019-01-24T22:22:38.169Z,47.30
2019-01-24T22:25:08.969Z,49.13
2019-01-24T22:27:37.565Z,44.87
2019-01-24T22:30:10.785Z,47.37
2019-01-24T22:32:39.476Z,47.63
2019-01-24T22:35:08.321Z,47.33
2019-01-24T22:37:37.129Z,51.10
2019-01-24T22:40:06.154Z,53.40
2019-01-24T22:42:34.738Z,47.50
2019-01-24T22:45:03.711Z,55.23
2019-01-24T22:47:34.121Z,50.35
2019-01-24T22:50:05.250Z,50.37
2019-01-24T22:52:34.696Z,51.10
2019-01-24T22:55:03.342Z,48.40
2019-01-24T22:57:31.909Z,47.33
2019-01-24T23:00:00.932Z,50.87
2019-01-24T23:02:31.379Z,50.17
2019-01-24T23:05:00.046Z,48.60
2019-01-24T23:07:28.696Z,47.83
2019-01-24T23:09:57.350Z,49.67
2019-01-24T23:12:26.110Z,50.35
2019-01-24T23:14:54.849Z,52.03
2019-01-24T23:17:23.578Z,55.43
2019-01-24T23:19:52.287Z,52.23
2019-01-24T23:22:20.983Z,48.67
2019-01-24T23:24:49.714Z,47.73
2019-01-24T23:27:18.279Z,53.20
2019-01-24T23:29:46.996Z,49.18
2019-01-24T23:32:15.567Z,44.63
2019-01-24T23:34:44.161Z,50.05
2019-01-24T23:37:12.737Z,47.83
2019-01-24T23:39:42.307Z,49.77
2019-01-24T23:42:10.974Z,47.23
2019-01-24T23:44:39.678Z,46.47
2019-01-24T23:47:08.252Z,48.47
2019-01-24T23:49:37.071Z,56.70
2019-01-24T23:52:05.673Z,53.13
2019-01-24T23:54:36.832Z,50.80
2019-01-24T23:57:06.098Z,49.97
2019-01-24T23:59:35.175Z,51.37
